sensor_id;sensor_type;location;lat;lon;timestamp;pressure;altitude;pressure_sealevel;temperature;humidity
35878;BME280;21982;49.804;24.072;2023-04-09T00:02:17;97797.28;;;6.64;67.36
35878;BME280;21982;49.804;24.072;2023-04-09T00:04:43;97475.09;;;4.39;66.83
35878;BME280;21982;49.804;24.072;2023-04-09T00:07:08;97636.03;;;5.75;67.37
35878;BME280;21982;49.804;24.072;2023-04-09T00:09:33;97649.44;;;5.99;67.24
35878;BME280;21982;49.804;24.072;2023-04-09T00:11:59;97568.63;;;5.48;67.48
35878;BME280;21982;49.804;24.072;2023-04-09T00:14:26;97629.59;;;5.87;67.23
35878;BME280;21982;49.804;24.072;2023-04-09T00:16:51;97804.81;;;7.03;67.66
35878;BME280;21982;49.804;24.072;2023-04-09T00:19:17;97802.50;;;7.00;67.50
35878;BME280;21982;49.804;24.072;2023-04-09T00:21:42;97800.84;;;6.99;67.61
35878;BME280;21982;49.804;24.072;2023-04-09T00:24:08;97710.41;;;6.38;67.53
35878;BME280;21982;49.804;24.072;2023-04-09T00:26:33;97742.00;;;6.64;67.57
35878;BME280;21982;49.804;24.072;2023-04-09T00:28:58;97700.19;;;6.35;67.04
35878;BME280;21982;49.804;24.072;2023-04-09T00:31:24;97598.28;;;5.76;67.54
35878;BME280;21982;49.804;24.072;2023-04-09T00:33:50;97723.94;;;6.44;67.65
35878;BME280;21982;49.804;24.072;2023-04-09T00:36:15;97804.91;;;6.93;67.41
35878;BME280;21982;49.804;24.072;2023-04-09T00:38:40;97546.47;;;5.33;67.70
35878;BME280;21982;49.804;24.072;2023-04-09T00:41:06;97590.22;;;5.60;67.11
35878;BME280;21982;49.804;24.072;2023-04-09T00:43:31;97612.97;;;5.69;67.23
35878;BME280;21982;49.804;24.072;2023-04-09T00:45:57;97796.59;;;6.80;67.81
35878;BME280;21982;49.804;24.072;2023-04-09T00:48:23;97729.81;;;6.20;67.82
35878;BME280;21982;49.804;24.072;2023-04-09T00:50:49;97745.28;;;6.23;67.58
35878;BME280;21982;49.804;24.072;2023-04-09T00:53:15;97665.88;;;5.56;67.44
35878;BME280;21982;49.804;24.072;2023-04-09T00:55:41;97670.13;;;5.39;67.63
35878;BME280;21982;49.804;24.072;2023-04-09T00:58:07;97771.41;;;6.07;67.92
35878;BME280;21982;49.804;24.072;2023-04-09T01:00:32;97732.47;;;5.65;68.33
35878;BME280;21982;49.804;24.072;2023-04-09T01:02:58;97714.13;;;5.55;68.27
35878;BME280;21982;49.804;24.072;2023-04-09T01:05:36;97718.94;;;5.60;68.11
35878;BME280;21982;49.804;24.072;2023-04-09T01:08:13;97755.34;;;5.82;68.25
35878;BME280;21982;49.804;24.072;2023-04-09T01:10:46;97623.50;;;4.96;68.35
35878;BME280;21982;49.804;24.072;2023-04-09T01:16:11;97738.72;;;5.64;68.96
35878;BME280;21982;49.804;24.072;2023-04-09T01:19:00;97815.13;;;6.08;68.99
35878;BME280;21982;49.804;24.072;2023-04-09T01:21:31;97815.13;;;6.08;68.87
35878;BME280;21982;49.804;24.072;2023-04-09T01:24:23;97812.13;;;6.02;68.71
35878;BME280;21982;49.804;24.072;2023-04-09T01:27:04;97806.53;;;5.78;69.19
35878;BME280;21982;49.804;24.072;2023-04-09T01:29:50;97087.91;;;1.19;68.51
35878;BME280;21982;49.804;24.072;2023-04-09T01:32:18;97809.56;;;5.83;69.05
35878;BME280;21982;49.804;24.072;2023-04-09T01:34:46;97812.88;;;5.85;69.26
35878;BME280;21982;49.804;24.072;2023-04-09T01:37:13;97814.00;;;5.83;69.57
35878;BME280;21982;49.804;24.072;2023-04-09T01:39:39;97759.25;;;5.51;69.62
35878;BME280;21982;49.804;24.072;2023-04-09T01:42:06;97806.94;;;5.83;69.92
35878;BME280;21982;49.804;24.072;2023-04-09T01:44:37;97804.03;;;5.86;69.75
35878;BME280;21982;49.804;24.072;2023-04-09T01:47:03;97809.44;;;5.85;69.67
35878;BME280;21982;49.804;24.072;2023-04-09T01:49:29;97807.09;;;5.82;69.52
35878;BME280;21982;49.804;24.072;2023-04-09T01:51:56;97751.25;;;5.43;69.57
35878;BME280;21982;49.804;24.072;2023-04-09T01:54:22;97688.13;;;5.07;70.19
35878;BME280;21982;49.804;24.072;2023-04-09T01:56:47;97816.88;;;5.89;69.73
35878;BME280;21982;49.804;24.072;2023-04-09T01:59:13;97811.47;;;5.91;69.80
35878;BME280;21982;49.804;24.072;2023-04-09T02:01:52;97810.75;;;5.98;69.45
35878;BME280;21982;49.804;24.072;2023-04-09T02:04:25;97818.88;;;6.05;69.41
35878;BME280;21982;49.804;24.072;2023-04-09T02:09:58;97746.53;;;5.73;69.96
35878;BME280;21982;49.804;24.072;2023-04-09T02:12:25;97813.97;;;6.20;69.71
35878;BME280;21982;49.804;24.072;2023-04-09T02:14:51;97817.41;;;6.20;69.50
35878;BME280;21982;49.804;24.072;2023-04-09T02:17:18;97818.16;;;6.13;69.57
35878;BME280;21982;49.804;24.072;2023-04-09T02:19:45;97766.06;;;5.71;69.27
35878;BME280;21982;49.804;24.072;2023-04-09T02:22:11;97636.81;;;4.85;69.24
35878;BME280;21982;49.804;24.072;2023-04-09T02:24:37;97817.56;;;5.91;69.62
35878;BME280;21982;49.804;24.072;2023-04-09T02:27:03;97722.84;;;5.28;69.39
35878;BME280;21982;49.804;24.072;2023-04-09T02:29:29;97814.97;;;5.82;69.57
35878;BME280;21982;49.804;24.072;2023-04-09T02:31:55;97813.75;;;5.76;69.91
35878;BME280;21982;49.804;24.072;2023-04-09T02:34:20;97677.31;;;4.83;70.10
35878;BME280;21982;49.804;24.072;2023-04-09T02:36:45;97713.00;;;5.03;69.64
35878;BME280;21982;49.804;24.072;2023-04-09T02:39:11;97708.09;;;4.81;69.58
35878;BME280;21982;49.804;24.072;2023-04-09T02:41:38;97770.38;;;5.25;69.79
35878;BME280;21982;49.804;24.072;2023-04-09T02:44:03;97813.25;;;5.63;69.73
35878;BME280;21982;49.804;24.072;2023-04-09T02:46:29;97812.56;;;5.61;69.74
35878;BME280;21982;49.804;24.072;2023-04-09T02:48:54;97819.47;;;5.62;70.09
35878;BME280;21982;49.804;24.072;2023-04-09T02:51:20;97811.72;;;5.60;69.66
35878;BME280;21982;49.804;24.072;2023-04-09T02:53:45;97818.63;;;5.61;69.62
35878;BME280;21982;49.804;24.072;2023-04-09T02:56:11;97684.84;;;4.86;70.01
35878;BME280;21982;49.804;24.072;2023-04-09T02:58:36;97811.59;;;5.62;69.68
35878;BME280;21982;49.804;24.072;2023-04-09T03:01:02;97693.41;;;4.88;69.60
35878;BME280;21982;49.804;24.072;2023-04-09T03:03:27;97804.38;;;5.64;69.85
35878;BME280;21982;49.804;24.072;2023-04-09T03:05:53;97715.88;;;5.10;69.29
35878;BME280;21982;49.804;24.072;2023-04-09T03:08:18;97805.22;;;5.64;69.89
35878;BME280;21982;49.804;24.072;2023-04-09T03:10:44;97806.19;;;5.63;69.39
35878;BME280;21982;49.804;24.072;2023-04-09T03:13:09;97769.81;;;5.31;69.88
35878;BME280;21982;49.804;24.072;2023-04-09T03:15:34;97779.44;;;5.50;70.18
35878;BME280;21982;49.804;24.072;2023-04-09T03:18:00;97746.59;;;5.36;69.89
35878;BME280;21982;49.804;24.072;2023-04-09T03:20:25;97725.47;;;5.28;69.60
35878;BME280;21982;49.804;24.072;2023-04-09T03:22:51;97590.56;;;4.47;69.72
35878;BME280;21982;49.804;24.072;2023-04-09T03:25:16;97694.75;;;5.11;69.82
35878;BME280;21982;49.804;24.072;2023-04-09T03:27:43;97741.63;;;5.33;69.84
35878;BME280;21982;49.804;24.072;2023-04-09T03:30:09;97670.97;;;5.13;69.77
35878;BME280;21982;49.804;24.072;2023-04-09T03:32:35;97812.50;;;6.08;69.55
35878;BME280;21982;49.804;24.072;2023-04-09T03:35:00;97701.22;;;5.44;69.33
35878;BME280;21982;49.804;24.072;2023-04-09T03:37:25;97661.75;;;5.26;68.81
35878;BME280;21982;49.804;24.072;2023-04-09T03:39:51;97720.47;;;5.62;69.50
35878;BME280;21982;49.804;24.072;2023-04-09T03:42:16;97816.94;;;6.25;69.20
35878;BME280;21982;49.804;24.072;2023-04-09T03:44:41;97788.69;;;6.09;69.18
35878;BME280;21982;49.804;24.072;2023-04-09T03:47:07;97604.16;;;4.97;69.22
35878;BME280;21982;49.804;24.072;2023-04-09T03:49:34;97770.91;;;5.66;68.74
35878;BME280;21982;49.804;24.072;2023-04-09T03:52:00;97301.41;;;2.71;68.94
35878;BME280;21982;49.804;24.072;2023-04-09T03:54:28;97815.63;;;6.21;69.56
35878;BME280;21982;49.804;24.072;2023-04-09T03:56:54;97642.25;;;5.11;69.16
35878;BME280;21982;49.804;24.072;2023-04-09T03:59:21;97810.25;;;6.13;69.38
35878;BME280;21982;49.804;24.072;2023-04-09T04:01:46;97619.72;;;4.81;68.92
35878;BME280;21982;49.804;24.072;2023-04-09T04:04:12;97817.56;;;6.19;69.14
35878;BME280;21982;49.804;24.072;2023-04-09T04:06:37;97823.88;;;6.26;69.30
35878;BME280;21982;49.804;24.072;2023-04-09T04:09:03;97825.59;;;6.35;69.38
35878;BME280;21982;49.804;24.072;2023-04-09T04:11:28;97823.44;;;6.48;68.95
35878;BME280;21982;49.804;24.072;2023-04-09T04:13:54;97743.75;;;6.02;68.67
35878;BME280;21982;49.804;24.072;2023-04-09T04:16:20;97765.28;;;6.16;68.26
35878;BME280;21982;49.804;24.072;2023-04-09T04:18:46;97830.66;;;6.64;68.16
35878;BME280;21982;49.804;24.072;2023-04-09T04:21:13;97782.56;;;6.36;67.84
35878;BME280;21982;49.804;24.072;2023-04-09T04:23:42;97823.84;;;6.53;67.69
35878;BME280;21982;49.804;24.072;2023-04-09T04:26:09;97689.63;;;5.64;67.34
35878;BME280;21982;49.804;24.072;2023-04-09T04:28:39;97655.66;;;5.35;67.93
35878;BME280;21982;49.804;24.072;2023-04-09T04:31:09;97786.16;;;6.35;68.19
35878;BME280;21982;49.804;24.072;2023-04-09T04:33:38;97835.47;;;6.68;68.03
35878;BME280;21982;49.804;24.072;2023-04-09T04:36:09;97656.22;;;5.75;67.64
35878;BME280;21982;49.804;24.072;2023-04-09T04:38:35;97796.81;;;6.69;67.13
35878;BME280;21982;49.804;24.072;2023-04-09T04:41:02;97836.41;;;7.21;67.18
35878;BME280;21982;49.804;24.072;2023-04-09T04:43:27;97833.41;;;7.42;66.99
35878;BME280;21982;49.804;24.072;2023-04-09T04:45:53;97840.22;;;7.78;66.80
35878;BME280;21982;49.804;24.072;2023-04-09T04:48:20;97802.72;;;7.92;66.30
35878;BME280;21982;49.804;24.072;2023-04-09T04:50:46;97785.81;;;8.19;65.18
35878;BME280;21982;49.804;24.072;2023-04-09T04:53:18;97839.53;;;9.01;64.94
35878;BME280;21982;49.804;24.072;2023-04-09T04:55:44;97829.97;;;9.32;64.03
35878;BME280;21982;49.804;24.072;2023-04-09T04:58:09;97818.69;;;9.55;63.02
35878;BME280;21982;49.804;24.072;2023-04-09T05:00:35;97841.13;;;10.14;62.52
35878;BME280;21982;49.804;24.072;2023-04-09T05:03:00;97831.66;;;10.36;61.81
35878;BME280;21982;49.804;24.072;2023-04-09T05:05:26;97813.44;;;10.87;60.97
35878;BME280;21982;49.804;24.072;2023-04-09T05:07:51;97775.63;;;10.93;60.12
35878;BME280;21982;49.804;24.072;2023-04-09T05:10:16;97842.84;;;11.37;59.79
35878;BME280;21982;49.804;24.072;2023-04-09T05:12:42;97839.78;;;11.26;59.70
35878;BME280;21982;49.804;24.072;2023-04-09T05:15:08;97837.91;;;11.34;59.17
35878;BME280;21982;49.804;24.072;2023-04-09T05:17:34;97763.84;;;10.95;59.53
35878;BME280;21982;49.804;24.072;2023-04-09T05:19:59;97781.06;;;11.14;58.96
35878;BME280;21982;49.804;24.072;2023-04-09T05:22:25;97841.22;;;11.66;58.92
35878;BME280;21982;49.804;24.072;2023-04-09T05:24:51;97763.38;;;11.29;58.69
35878;BME280;21982;49.804;24.072;2023-04-09T05:27:16;97821.13;;;11.86;58.64
35878;BME280;21982;49.804;24.072;2023-04-09T05:29:43;97774.28;;;11.93;57.92
35878;BME280;21982;49.804;24.072;2023-04-09T05:32:09;97849.38;;;12.74;57.17
35878;BME280;21982;49.804;24.072;2023-04-09T05:34:35;97859.47;;;13.00;56.29
35878;BME280;21982;49.804;24.072;2023-04-09T05:37:00;97718.47;;;12.23;55.84
35878;BME280;21982;49.804;24.072;2023-04-09T05:39:26;97652.50;;;11.84;55.45
35878;BME280;21982;49.804;24.072;2023-04-09T05:41:51;97720.81;;;12.54;55.16
35878;BME280;21982;49.804;24.072;2023-04-09T05:44:17;97860.69;;;13.68;55.00
35878;BME280;21982;49.804;24.072;2023-04-09T05:46:42;97825.59;;;13.86;53.97
35878;BME280;21982;49.804;24.072;2023-04-09T05:49:08;97857.09;;;14.51;53.30
35878;BME280;21982;49.804;24.072;2023-04-09T05:51:33;97867.91;;;15.11;52.75
35878;BME280;21982;49.804;24.072;2023-04-09T05:53:59;97865.06;;;15.78;51.94
35878;BME280;21982;49.804;24.072;2023-04-09T05:56:25;97683.63;;;15.19;50.80
35878;BME280;21982;49.804;24.072;2023-04-09T05:58:53;97860.88;;;17.11;49.50
35878;BME280;21982;49.804;24.072;2023-04-09T06:01:18;97761.50;;;17.07;48.02
35878;BME280;21982;49.804;24.072;2023-04-09T06:03:43;97863.56;;;17.92;47.58
35878;BME280;21982;49.804;24.072;2023-04-09T06:06:09;97892.94;;;18.24;47.27
35878;BME280;21982;49.804;24.072;2023-04-09T06:08:34;97892.63;;;18.50;46.59
35878;BME280;21982;49.804;24.072;2023-04-09T06:11:01;97757.34;;;17.80;45.98
35878;BME280;21982;49.804;24.072;2023-04-09T06:13:27;97882.19;;;18.79;45.52
35878;BME280;21982;49.804;24.072;2023-04-09T06:15:53;97895.28;;;19.05;45.29
35878;BME280;21982;49.804;24.072;2023-04-09T06:18:18;97898.38;;;19.20;44.92
35878;BME280;21982;49.804;24.072;2023-04-09T06:20:45;97870.59;;;19.26;44.40
35878;BME280;21982;49.804;24.072;2023-04-09T06:23:11;97864.56;;;19.42;43.70
35878;BME280;21982;49.804;24.072;2023-04-09T06:25:36;97904.38;;;19.87;43.30
35878;BME280;21982;49.804;24.072;2023-04-09T06:28:02;97772.91;;;19.39;42.64
35878;BME280;21982;49.804;24.072;2023-04-09T06:30:29;97904.34;;;20.57;41.70
35878;BME280;21982;49.804;24.072;2023-04-09T06:32:56;97901.19;;;20.72;41.24
35878;BME280;21982;49.804;24.072;2023-04-09T06:35:22;97906.75;;;20.82;40.89
35878;BME280;21982;49.804;24.072;2023-04-09T06:37:47;97681.34;;;19.40;40.57
35878;BME280;21982;49.804;24.072;2023-04-09T06:40:22;97801.53;;;20.03;40.74
35878;BME280;21982;49.804;24.072;2023-04-09T06:42:48;97907.06;;;20.57;40.50
35878;BME280;21982;49.804;24.072;2023-04-09T06:45:13;97898.25;;;20.73;40.20
35878;BME280;21982;49.804;24.072;2023-04-09T06:47:39;97903.34;;;20.87;39.75
35878;BME280;21982;49.804;24.072;2023-04-09T06:50:05;97898.78;;;20.87;39.36
35878;BME280;21982;49.804;24.072;2023-04-09T06:52:31;97902.41;;;20.81;39.48
35878;BME280;21982;49.804;24.072;2023-04-09T06:54:56;97857.97;;;20.38;39.52
35878;BME280;21982;49.804;24.072;2023-04-09T06:57:22;97905.09;;;20.41;39.75
35878;BME280;21982;49.804;24.072;2023-04-09T06:59:47;97910.09;;;20.26;39.88
35878;BME280;21982;49.804;24.072;2023-04-09T07:02:13;97902.38;;;20.18;40.07
35878;BME280;21982;49.804;24.072;2023-04-09T07:07:14;97798.84;;;20.03;39.52
35878;BME280;21982;49.804;24.072;2023-04-09T07:09:49;97923.13;;;20.81;39.17
35878;BME280;21982;49.804;24.072;2023-04-09T07:12:27;97891.53;;;20.88;38.91
35878;BME280;21982;49.804;24.072;2023-04-09T07:17:31;97826.94;;;21.50;37.23
35878;BME280;21982;49.804;24.072;2023-04-09T07:25:54;97729.13;;;21.49;36.81
35878;BME280;21982;49.804;24.072;2023-04-09T07:34:17;97738.88;;;21.72;35.91
35878;BME280;21982;49.804;24.072;2023-04-09T07:36:42;97831.06;;;22.46;35.61
35878;BME280;21982;49.804;24.072;2023-04-09T07:39:07;97847.03;;;22.31;35.34
35878;BME280;21982;49.804;24.072;2023-04-09T07:41:33;97911.97;;;22.63;35.54
35878;BME280;21982;49.804;24.072;2023-04-09T07:44:23;97886.06;;;22.84;35.46
35878;BME280;21982;49.804;24.072;2023-04-09T07:46:55;97859.75;;;22.52;34.90
35878;BME280;21982;49.804;24.072;2023-04-09T07:49:20;97431.19;;;19.77;34.80
35878;BME280;21982;49.804;24.072;2023-04-09T07:51:46;97919.56;;;22.88;35.18
35878;BME280;21982;49.804;24.072;2023-04-09T07:54:11;97925.25;;;23.08;34.69
35878;BME280;21982;49.804;24.072;2023-04-09T07:56:37;97908.59;;;23.16;34.60
35878;BME280;21982;49.804;24.072;2023-04-09T07:59:02;97926.06;;;23.35;34.38
35878;BME280;21982;49.804;24.072;2023-04-09T08:01:27;97925.97;;;23.52;33.85
35878;BME280;21982;49.804;24.072;2023-04-09T08:03:53;97733.50;;;21.72;34.26
35878;BME280;21982;49.804;24.072;2023-04-09T08:06:18;97931.78;;;23.12;33.90
35878;BME280;21982;49.804;24.072;2023-04-09T08:08:44;97926.28;;;22.63;34.08
35878;BME280;21982;49.804;24.072;2023-04-09T08:11:09;97928.09;;;22.02;34.89
35878;BME280;21982;49.804;24.072;2023-04-09T08:13:35;97842.69;;;20.96;35.39
35878;BME280;21982;49.804;24.072;2023-04-09T08:16:03;97769.66;;;19.72;36.07
35878;BME280;21982;49.804;24.072;2023-04-09T08:18:29;97868.31;;;19.12;37.19
35878;BME280;21982;49.804;24.072;2023-04-09T08:20:55;97927.72;;;18.85;38.42
35878;BME280;21982;49.804;24.072;2023-04-09T08:23:20;97865.66;;;17.90;38.86
35878;BME280;21982;49.804;24.072;2023-04-09T08:25:46;97882.47;;;17.48;39.54
35878;BME280;21982;49.804;24.072;2023-04-09T08:28:11;97764.97;;;16.45;40.31
35878;BME280;21982;49.804;24.072;2023-04-09T08:30:37;97923.66;;;17.47;40.19
35878;BME280;21982;49.804;24.072;2023-04-09T08:33:06;97918.47;;;17.52;40.42
35878;BME280;21982;49.804;24.072;2023-04-09T08:35:32;97876.25;;;16.91;40.34
35878;BME280;21982;49.804;24.072;2023-04-09T08:37:58;97833.06;;;16.87;40.45
35878;BME280;21982;49.804;24.072;2023-04-09T08:40:24;97946.94;;;17.46;40.54
35878;BME280;21982;49.804;24.072;2023-04-09T08:42:54;97919.84;;;17.61;40.53
35878;BME280;21982;49.804;24.072;2023-04-09T08:45:23;97919.16;;;17.40;40.78
35878;BME280;21982;49.804;24.072;2023-04-09T08:47:49;97870.72;;;16.86;40.92
35878;BME280;21982;49.804;24.072;2023-04-09T08:50:15;97920.31;;;17.26;41.14
35878;BME280;21982;49.804;24.072;2023-04-09T08:52:42;97921.72;;;17.60;40.93
35878;BME280;21982;49.804;24.072;2023-04-09T08:55:10;97835.47;;;17.52;40.38
35878;BME280;21982;49.804;24.072;2023-04-09T08:57:37;97921.69;;;18.53;39.84
35878;BME280;21982;49.804;24.072;2023-04-09T09:00:03;97915.41;;;18.66;39.53
35878;BME280;21982;49.804;24.072;2023-04-09T09:02:29;97859.53;;;17.83;39.77
35878;BME280;21982;49.804;24.072;2023-04-09T09:04:56;97913.72;;;17.85;39.77
35878;BME280;21982;49.804;24.072;2023-04-09T09:07:26;97912.63;;;17.61;40.23
35878;BME280;21982;49.804;24.072;2023-04-09T09:10:00;97872.19;;;17.13;40.21
35878;BME280;21982;49.804;24.072;2023-04-09T09:12:31;97914.94;;;17.26;40.59
35878;BME280;21982;49.804;24.072;2023-04-09T09:14:57;97832.38;;;16.54;40.72
35878;BME280;21982;49.804;24.072;2023-04-09T09:17:23;97809.94;;;16.03;41.06
35878;BME280;21982;49.804;24.072;2023-04-09T09:19:48;97802.44;;;15.74;41.36
35878;BME280;21982;49.804;24.072;2023-04-09T09:22:14;97916.59;;;16.25;41.82
35878;BME280;21982;49.804;24.072;2023-04-09T09:24:50;97817.84;;;15.46;41.95
35878;BME280;21982;49.804;24.072;2023-04-09T09:27:33;97856.84;;;15.53;42.17
35878;BME280;21982;49.804;24.072;2023-04-09T09:30:02;97912.31;;;15.78;42.49
35878;BME280;21982;49.804;24.072;2023-04-09T09:32:28;97763.25;;;14.89;42.69
35878;BME280;21982;49.804;24.072;2023-04-09T09:35:03;97914.16;;;15.90;42.69
35878;BME280;21982;49.804;24.072;2023-04-09T09:37:30;97912.09;;;15.92;42.78
35878;BME280;21982;49.804;24.072;2023-04-09T09:39:56;97838.78;;;15.68;42.24
35878;BME280;21982;49.804;24.072;2023-04-09T09:42:23;97907.03;;;16.55;42.05
35878;BME280;21982;49.804;24.072;2023-04-09T09:44:50;97906.13;;;17.19;41.19
35878;BME280;21982;49.804;24.072;2023-04-09T09:47:17;97841.34;;;17.35;40.57
35878;BME280;21982;49.804;24.072;2023-04-09T09:49:53;97815.78;;;17.89;39.34
35878;BME280;21982;49.804;24.072;2023-04-09T09:52:23;97903.66;;;19.80;38.30
35878;BME280;21982;49.804;24.072;2023-04-09T09:54:51;97820.56;;;20.65;36.60
35878;BME280;21982;49.804;24.072;2023-04-09T09:57:18;97870.09;;;22.22;34.99
35878;BME280;21982;49.804;24.072;2023-04-09T09:59:50;97911.16;;;23.06;33.89
35878;BME280;21982;49.804;24.072;2023-04-09T10:02:27;97906.81;;;23.54;32.64
35878;BME280;21982;49.804;24.072;2023-04-09T10:04:59;97772.72;;;22.67;31.98
35878;BME280;21982;49.804;24.072;2023-04-09T10:07:25;97905.56;;;23.13;31.08
35878;BME280;21982;49.804;24.072;2023-04-09T10:09:53;97908.06;;;22.76;31.23
35878;BME280;21982;49.804;24.072;2023-04-09T10:12:21;97896.00;;;22.39;31.75
35878;BME280;21982;49.804;24.072;2023-04-09T10:14:51;97886.88;;;21.90;31.79
35878;BME280;21982;49.804;24.072;2023-04-09T10:17:18;97851.69;;;21.01;31.91
35878;BME280;21982;49.804;24.072;2023-04-09T10:20:00;97603.91;;;20.01;32.19
35878;BME280;21982;49.804;24.072;2023-04-09T10:22:32;97877.56;;;22.75;31.63
35878;BME280;21982;49.804;24.072;2023-04-09T10:25:05;97844.66;;;23.59;30.38
35878;BME280;21982;49.804;24.072;2023-04-09T10:27:32;97894.88;;;25.28;29.36
35878;BME280;21982;49.804;24.072;2023-04-09T10:29:58;97894.91;;;26.04;28.34
35878;BME280;21982;49.804;24.072;2023-04-09T10:32:25;97852.66;;;24.70;27.75
35878;BME280;21982;49.804;24.072;2023-04-09T10:34:55;97902.41;;;25.11;27.75
35878;BME280;21982;49.804;24.072;2023-04-09T10:37:22;97897.34;;;25.60;27.00
35878;BME280;21982;49.804;24.072;2023-04-09T10:39:48;97802.16;;;25.26;26.73
35878;BME280;21982;49.804;24.072;2023-04-09T10:42:34;97887.88;;;25.93;27.16
35878;BME280;21982;49.804;24.072;2023-04-09T10:45:09;97836.78;;;24.99;26.62
35878;BME280;21982;49.804;24.072;2023-04-09T10:47:38;97885.66;;;24.15;27.21
35878;BME280;21982;49.804;24.072;2023-04-09T10:52:39;97748.69;;;23.24;27.56
35878;BME280;21982;49.804;24.072;2023-04-09T10:55:05;97868.47;;;24.36;27.22
35878;BME280;21982;49.804;24.072;2023-04-09T10:57:31;97811.75;;;24.56;26.88
35878;BME280;21982;49.804;24.072;2023-04-09T11:00:01;97863.97;;;25.24;26.33
35878;BME280;21982;49.804;24.072;2023-04-09T11:02:43;97877.81;;;25.58;26.96
35878;BME280;21982;49.804;24.072;2023-04-09T11:10:20;97799.22;;;22.26;27.85
35878;BME280;21982;49.804;24.072;2023-04-09T11:12:47;97847.09;;;21.30;28.92
35878;BME280;21982;49.804;24.072;2023-04-09T11:15:17;97860.63;;;20.50;30.01
35878;BME280;21982;49.804;24.072;2023-04-09T11:17:43;97675.25;;;18.63;30.83
35878;BME280;21982;49.804;24.072;2023-04-09T11:20:09;97879.03;;;19.30;31.01
35878;BME280;21982;49.804;24.072;2023-04-09T11:22:35;97867.25;;;18.71;31.82
35878;BME280;21982;49.804;24.072;2023-04-09T11:25:00;97857.84;;;18.43;32.53
35878;BME280;21982;49.804;24.072;2023-04-09T11:27:28;97846.47;;;18.30;32.14
35878;BME280;21982;49.804;24.072;2023-04-09T11:29:59;97842.53;;;18.32;32.12
35878;BME280;21982;49.804;24.072;2023-04-09T11:32:29;97869.34;;;18.69;32.02
35878;BME280;21982;49.804;24.072;2023-04-09T11:34:55;97787.28;;;17.95;32.33
35878;BME280;21982;49.804;24.072;2023-04-09T11:37:22;97875.06;;;18.36;32.48
35878;BME280;21982;49.804;24.072;2023-04-09T11:39:48;97828.19;;;17.84;33.25
35878;BME280;21982;49.804;24.072;2023-04-09T11:42:16;97876.09;;;17.73;33.52
35878;BME280;21982;49.804;24.072;2023-04-09T11:44:44;97768.09;;;17.05;33.81
35878;BME280;21982;49.804;24.072;2023-04-09T11:47:11;97870.06;;;17.78;34.01
35878;BME280;21982;49.804;24.072;2023-04-09T11:52:41;97911.41;;;18.87;32.79
35878;BME280;21982;49.804;24.072;2023-04-09T11:55:11;97591.81;;;17.15;32.67
35878;BME280;21982;49.804;24.072;2023-04-09T11:57:45;97872.63;;;19.01;32.14
35878;BME280;21982;49.804;24.072;2023-04-09T12:00:15;97868.28;;;19.41;31.75
35878;BME280;21982;49.804;24.072;2023-04-09T12:02:48;97778.75;;;18.83;32.14
35878;BME280;21982;49.804;24.072;2023-04-09T12:05:21;97817.38;;;19.47;31.65
35878;BME280;21982;49.804;24.072;2023-04-09T12:07:47;97864.44;;;20.66;31.33
35878;BME280;21982;49.804;24.072;2023-04-09T12:16:24;97462.94;;;20.86;29.17
35878;BME280;21982;49.804;24.072;2023-04-09T12:18:49;97509.56;;;21.30;28.30
35878;BME280;21982;49.804;24.072;2023-04-09T12:28:04;97720.09;;;22.96;27.88
35878;BME280;21982;49.804;24.072;2023-04-09T12:30:33;97787.06;;;23.26;27.69
35878;BME280;21982;49.804;24.072;2023-04-09T12:32:58;97746.06;;;23.34;27.96
35878;BME280;21982;49.804;24.072;2023-04-09T12:35:24;97872.66;;;24.54;26.83
35878;BME280;21982;49.804;24.072;2023-04-09T12:37:52;97866.44;;;24.58;26.50
35878;BME280;21982;49.804;24.072;2023-04-09T12:40:19;97901.78;;;24.89;26.41
35878;BME280;21982;49.804;24.072;2023-04-09T12:42:48;97539.38;;;22.90;26.33
35878;BME280;21982;49.804;24.072;2023-04-09T12:45:16;97852.09;;;24.68;26.14
35878;BME280;21982;49.804;24.072;2023-04-09T12:47:42;97849.47;;;24.26;25.78
35878;BME280;21982;49.804;24.072;2023-04-09T12:50:09;97838.16;;;23.55;26.14
35878;BME280;21982;49.804;24.072;2023-04-09T12:52:35;97699.53;;;22.36;26.59
35878;BME280;21982;49.804;24.072;2023-04-09T12:55:01;97706.81;;;22.36;26.80
35878;BME280;21982;49.804;24.072;2023-04-09T12:57:27;97840.31;;;23.53;26.36
35878;BME280;21982;49.804;24.072;2023-04-09T12:59:53;97783.00;;;23.24;26.38
35878;BME280;21982;49.804;24.072;2023-04-09T13:02:19;97841.72;;;23.33;26.78
35878;BME280;21982;49.804;24.072;2023-04-09T13:04:46;97783.78;;;22.92;26.36
35878;BME280;21982;49.804;24.072;2023-04-09T13:07:12;97838.59;;;23.47;26.43
35878;BME280;21982;49.804;24.072;2023-04-09T13:09:41;97718.66;;;22.84;26.38
35878;BME280;21982;49.804;24.072;2023-04-09T13:12:06;97769.03;;;22.51;26.44
35878;BME280;21982;49.804;24.072;2023-04-09T13:14:32;97832.97;;;22.29;27.30
35878;BME280;21982;49.804;24.072;2023-04-09T13:16:57;97684.69;;;20.51;27.68
35878;BME280;21982;49.804;24.072;2023-04-09T13:19:23;97825.38;;;20.92;28.22
35878;BME280;21982;49.804;24.072;2023-04-09T13:21:48;97659.06;;;19.40;28.69
35878;BME280;21982;49.804;24.072;2023-04-09T13:24:14;97824.91;;;19.91;29.08
35878;BME280;21982;49.804;24.072;2023-04-09T13:26:39;97811.66;;;19.43;29.50
35878;BME280;21982;49.804;24.072;2023-04-09T13:29:06;97817.63;;;19.45;29.27
35878;BME280;21982;49.804;24.072;2023-04-09T13:31:34;97837.66;;;19.84;29.46
35878;BME280;21982;49.804;24.072;2023-04-09T13:34:01;97562.19;;;18.48;29.08
35878;BME280;21982;49.804;24.072;2023-04-09T13:36:27;97823.75;;;19.87;28.88
35878;BME280;21982;49.804;24.072;2023-04-09T13:38:53;97613.69;;;18.27;29.47
35878;BME280;21982;49.804;24.072;2023-04-09T13:41:19;97814.94;;;19.33;29.60